sensor_id;sensor_type;location;lat;lon;timestamp;P1;durP1;ratioP1;P2;durP2;ratioP2
31128;SDS011;17777;48.770;8.944;2023-12-28T00:00:42;2.30;;;1.63;;
31128;SDS011;17777;48.770;8.944;2023-12-28T00:03:08;3.40;;;2.00;;
31128;SDS011;17777;48.770;8.944;2023-12-28T00:05:34;3.53;;;2.10;;
31128;SDS011;17777;48.770;8.944;2023-12-28T00:07:59;3.17;;;2.17;;
31128;SDS011;17777;48.770;8.944;2023-12-28T00:10:25;2.67;;;2.03;;
31128;SDS011;17777;48.770;8.944;2023-12-28T00:12:53;2.10;;;1.55;;
31128;SDS011;17777;48.770;8.944;2023-12-28T00:15:19;2.95;;;1.88;;
31128;SDS011;17777;48.770;8.944;2023-12-28T00:17:45;2.85;;;1.80;;
31128;SDS011;17777;48.770;8.944;2023-12-28T00:20:11;4.50;;;2.30;;
31128;SDS011;17777;48.770;8.944;2023-12-28T00:22:37;7.95;;;3.00;;
31128;SDS011;17777;48.770;8.944;2023-12-28T00:25:06;10.68;;;3.22;;
31128;SDS011;17777;48.770;8.944;2023-12-28T00:27:32;9.75;;;3.50;;
31128;SDS011;17777;48.770;8.944;2023-12-28T00:30:04;6.85;;;2.63;;
31128;SDS011;17777;48.770;8.944;2023-12-28T00:32:31;4.85;;;2.63;;
31128;SDS011;17777;48.770;8.944;2023-12-28T00:34:57;5.47;;;2.78;;
31128;SDS011;17777;48.770;8.944;2023-12-28T00:37:22;4.57;;;2.30;;
31128;SDS011;17777;48.770;8.944;2023-12-28T00:39:48;3.60;;;2.00;;
31128;SDS011;17777;48.770;8.944;2023-12-28T00:42:17;2.30;;;1.67;;
31128;SDS011;17777;48.770;8.944;2023-12-28T00:44:44;2.33;;;1.30;;
31128;SDS011;17777;48.770;8.944;2023-12-28T00:47:10;1.55;;;1.20;;
31128;SDS011;17777;48.770;8.944;2023-12-28T00:49:36;2.33;;;1.52;;
31128;SDS011;17777;48.770;8.944;2023-12-28T00:52:02;1.75;;;1.20;;
31128;SDS011;17777;48.770;8.944;2023-12-28T00:54:29;1.35;;;1.23;;
31128;SDS011;17777;48.770;8.944;2023-12-28T00:56:55;2.95;;;1.30;;
31128;SDS011;17777;48.770;8.944;2023-12-28T00:59:21;3.83;;;1.60;;
31128;SDS011;17777;48.770;8.944;2023-12-28T01:01:47;1.63;;;1.45;;
31128;SDS011;17777;48.770;8.944;2023-12-28T01:04:12;2.55;;;1.40;;
31128;SDS011;17777;48.770;8.944;2023-12-28T01:06:38;1.30;;;1.17;;
31128;SDS011;17777;48.770;8.944;2023-12-28T01:09:05;2.03;;;1.30;;
31128;SDS011;17777;48.770;8.944;2023-12-28T01:11:32;1.70;;;1.20;;
31128;SDS011;17777;48.770;8.944;2023-12-28T01:13:57;1.90;;;1.27;;
31128;SDS011;17777;48.770;8.944;2023-12-28T01:16:24;1.95;;;1.30;;
31128;SDS011;17777;48.770;8.944;2023-12-28T01:18:49;1.55;;;1.30;;
31128;SDS011;17777;48.770;8.944;2023-12-28T01:21:15;1.80;;;1.38;;
31128;SDS011;17777;48.770;8.944;2023-12-28T01:23:42;2.10;;;1.10;;
31128;SDS011;17777;48.770;8.944;2023-12-28T01:26:12;1.30;;;1.02;;
31128;SDS011;17777;48.770;8.944;2023-12-28T01:28:42;2.53;;;1.50;;
31128;SDS011;17777;48.770;8.944;2023-12-28T01:31:08;2.35;;;1.85;;
31128;SDS011;17777;48.770;8.944;2023-12-28T01:33:34;1.83;;;1.20;;
31128;SDS011;17777;48.770;8.944;2023-12-28T01:36:01;2.30;;;1.40;;
31128;SDS011;17777;48.770;8.944;2023-12-28T01:38:27;1.38;;;1.20;;
31128;SDS011;17777;48.770;8.944;2023-12-28T01:40:53;1.58;;;1.00;;
31128;SDS011;17777;48.770;8.944;2023-12-28T01:43:19;1.92;;;1.30;;
31128;SDS011;17777;48.770;8.944;2023-12-28T01:45:45;1.27;;;1.10;;
31128;SDS011;17777;48.770;8.944;2023-12-28T01:48:11;1.88;;;1.00;;
31128;SDS011;17777;48.770;8.944;2023-12-28T01:50:38;1.15;;;1.05;;
31128;SDS011;17777;48.770;8.944;2023-12-28T01:53:04;1.40;;;1.10;;
31128;SDS011;17777;48.770;8.944;2023-12-28T01:55:32;3.28;;;1.17;;
31128;SDS011;17777;48.770;8.944;2023-12-28T01:57:59;1.35;;;1.13;;
31128;SDS011;17777;48.770;8.944;2023-12-28T02:00:25;1.63;;;1.08;;
31128;SDS011;17777;48.770;8.944;2023-12-28T02:02:51;1.75;;;1.20;;
31128;SDS011;17777;48.770;8.944;2023-12-28T02:05:17;1.35;;;1.13;;
31128;SDS011;17777;48.770;8.944;2023-12-28T02:07:44;2.47;;;1.25;;
31128;SDS011;17777;48.770;8.944;2023-12-28T02:10:10;2.63;;;1.20;;
31128;SDS011;17777;48.770;8.944;2023-12-28T02:12:35;1.25;;;1.10;;
31128;SDS011;17777;48.770;8.944;2023-12-28T02:15:01;1.83;;;1.25;;
31128;SDS011;17777;48.770;8.944;2023-12-28T02:20:18;2.28;;;1.30;;
31128;SDS011;17777;48.770;8.944;2023-12-28T02:22:46;1.60;;;1.10;;
31128;SDS011;17777;48.770;8.944;2023-12-28T02:25:14;2.10;;;1.10;;
31128;SDS011;17777;48.770;8.944;2023-12-28T02:27:43;2.45;;;0.98;;
31128;SDS011;17777;48.770;8.944;2023-12-28T02:30:15;3.00;;;1.85;;
31128;SDS011;17777;48.770;8.944;2023-12-28T02:38:23;5.35;;;1.85;;
31128;SDS011;17777;48.770;8.944;2023-12-28T02:40:50;4.18;;;1.52;;
31128;SDS011;17777;48.770;8.944;2023-12-28T02:43:16;3.05;;;1.30;;
31128;SDS011;17777;48.770;8.944;2023-12-28T02:45:42;2.75;;;1.23;;
31128;SDS011;17777;48.770;8.944;2023-12-28T02:48:08;2.72;;;1.27;;
31128;SDS011;17777;48.770;8.944;2023-12-28T02:50:34;3.15;;;1.40;;
31128;SDS011;17777;48.770;8.944;2023-12-28T02:53:01;4.80;;;1.50;;
31128;SDS011;17777;48.770;8.944;2023-12-28T02:55:27;2.65;;;1.50;;
31128;SDS011;17777;48.770;8.944;2023-12-28T02:57:54;4.63;;;1.60;;
31128;SDS011;17777;48.770;8.944;2023-12-28T03:00:21;5.40;;;1.65;;
31128;SDS011;17777;48.770;8.944;2023-12-28T03:02:47;1.98;;;1.10;;
31128;SDS011;17777;48.770;8.944;2023-12-28T03:05:13;2.53;;;0.88;;
31128;SDS011;17777;48.770;8.944;2023-12-28T03:07:40;1.20;;;0.90;;
31128;SDS011;17777;48.770;8.944;2023-12-28T03:10:06;1.38;;;1.02;;
31128;SDS011;17777;48.770;8.944;2023-12-28T03:12:32;1.52;;;0.90;;
31128;SDS011;17777;48.770;8.944;2023-12-28T03:14:58;1.30;;;0.90;;
31128;SDS011;17777;48.770;8.944;2023-12-28T03:17:24;1.05;;;0.88;;
31128;SDS011;17777;48.770;8.944;2023-12-28T03:19:50;1.48;;;0.95;;
31128;SDS011;17777;48.770;8.944;2023-12-28T03:22:16;1.55;;;1.25;;
31128;SDS011;17777;48.770;8.944;2023-12-28T03:24:44;2.17;;;1.60;;
31128;SDS011;17777;48.770;8.944;2023-12-28T03:27:11;2.92;;;1.63;;
31128;SDS011;17777;48.770;8.944;2023-12-28T03:29:37;2.17;;;1.55;;
31128;SDS011;17777;48.770;8.944;2023-12-28T03:32:03;1.20;;;1.00;;
31128;SDS011;17777;48.770;8.944;2023-12-28T03:34:29;2.40;;;1.38;;
31128;SDS011;17777;48.770;8.944;2023-12-28T03:36:56;1.52;;;0.90;;
31128;SDS011;17777;48.770;8.944;2023-12-28T03:39:22;1.42;;;1.08;;
31128;SDS011;17777;48.770;8.944;2023-12-28T03:41:48;0.85;;;0.82;;
31128;SDS011;17777;48.770;8.944;2023-12-28T03:44:14;1.67;;;1.10;;
31128;SDS011;17777;48.770;8.944;2023-12-28T03:46:40;1.00;;;0.88;;
31128;SDS011;17777;48.770;8.944;2023-12-28T03:49:06;0.90;;;0.90;;
31128;SDS011;17777;48.770;8.944;2023-12-28T03:51:32;1.67;;;1.02;;
31128;SDS011;17777;48.770;8.944;2023-12-28T03:53:58;2.42;;;1.10;;
31128;SDS011;17777;48.770;8.944;2023-12-28T03:56:25;1.65;;;1.13;;
31128;SDS011;17777;48.770;8.944;2023-12-28T03:58:52;0.85;;;0.80;;
31128;SDS011;17777;48.770;8.944;2023-12-28T04:01:22;2.25;;;1.48;;
31128;SDS011;17777;48.770;8.944;2023-12-28T04:03:49;1.48;;;1.25;;
31128;SDS011;17777;48.770;8.944;2023-12-28T04:06:15;1.13;;;0.95;;
31128;SDS011;17777;48.770;8.944;2023-12-28T04:08:41;1.48;;;1.10;;
31128;SDS011;17777;48.770;8.944;2023-12-28T04:11:08;1.88;;;1.10;;
31128;SDS011;17777;48.770;8.944;2023-12-28T04:13:34;2.22;;;1.00;;
31128;SDS011;17777;48.770;8.944;2023-12-28T04:16:01;1.80;;;1.10;;
31128;SDS011;17777;48.770;8.944;2023-12-28T04:18:27;2.20;;;1.08;;
31128;SDS011;17777;48.770;8.944;2023-12-28T04:20:53;1.63;;;0.80;;
31128;SDS011;17777;48.770;8.944;2023-12-28T04:23:19;2.08;;;0.95;;
31128;SDS011;17777;48.770;8.944;2023-12-28T04:25:45;1.05;;;0.90;;
31128;SDS011;17777;48.770;8.944;2023-12-28T04:28:11;1.30;;;1.00;;
31128;SDS011;17777;48.770;8.944;2023-12-28T04:30:37;1.25;;;1.00;;
31128;SDS011;17777;48.770;8.944;2023-12-28T04:33:03;0.88;;;0.88;;
31128;SDS011;17777;48.770;8.944;2023-12-28T04:35:29;2.10;;;1.10;;
31128;SDS011;17777;48.770;8.944;2023-12-28T04:37:56;1.42;;;0.80;;
31128;SDS011;17777;48.770;8.944;2023-12-28T04:40:22;1.42;;;0.88;;
31128;SDS011;17777;48.770;8.944;2023-12-28T04:42:48;1.42;;;0.95;;
31128;SDS011;17777;48.770;8.944;2023-12-28T04:45:14;1.25;;;0.82;;
31128;SDS011;17777;48.770;8.944;2023-12-28T04:47:40;1.30;;;1.00;;
31128;SDS011;17777;48.770;8.944;2023-12-28T04:50:06;1.10;;;0.90;;
31128;SDS011;17777;48.770;8.944;2023-12-28T04:52:32;1.00;;;0.85;;
31128;SDS011;17777;48.770;8.944;2023-12-28T04:54:59;1.13;;;0.93;;
31128;SDS011;17777;48.770;8.944;2023-12-28T04:57:26;1.25;;;0.70;;
31128;SDS011;17777;48.770;8.944;2023-12-28T04:59:53;1.00;;;0.90;;
31128;SDS011;17777;48.770;8.944;2023-12-28T05:02:19;1.10;;;0.90;;
31128;SDS011;17777;48.770;8.944;2023-12-28T05:04:45;1.08;;;0.90;;
31128;SDS011;17777;48.770;8.944;2023-12-28T05:07:11;1.13;;;0.90;;
31128;SDS011;17777;48.770;8.944;2023-12-28T05:09:37;1.10;;;0.90;;
31128;SDS011;17777;48.770;8.944;2023-12-28T05:12:03;1.30;;;0.77;;
31128;SDS011;17777;48.770;8.944;2023-12-28T05:14:29;1.08;;;0.90;;
31128;SDS011;17777;48.770;8.944;2023-12-28T05:16:55;1.52;;;1.08;;
31128;SDS011;17777;48.770;8.944;2023-12-28T05:19:21;1.05;;;0.93;;
31128;SDS011;17777;48.770;8.944;2023-12-28T05:21:46;0.80;;;0.80;;
31128;SDS011;17777;48.770;8.944;2023-12-28T05:24:12;0.80;;;0.63;;
31128;SDS011;17777;48.770;8.944;2023-12-28T05:26:38;1.38;;;1.00;;
31128;SDS011;17777;48.770;8.944;2023-12-28T05:29:04;1.25;;;0.80;;
31128;SDS011;17777;48.770;8.944;2023-12-28T05:31:30;1.48;;;1.20;;
31128;SDS011;17777;48.770;8.944;2023-12-28T05:33:56;0.95;;;0.75;;
31128;SDS011;17777;48.770;8.944;2023-12-28T05:36:23;0.65;;;0.60;;
31128;SDS011;17777;48.770;8.944;2023-12-28T05:38:50;1.02;;;0.80;;
31128;SDS011;17777;48.770;8.944;2023-12-28T05:41:16;2.70;;;2.03;;
31128;SDS011;17777;48.770;8.944;2023-12-28T05:43:42;2.67;;;1.45;;
31128;SDS011;17777;48.770;8.944;2023-12-28T05:46:08;2.05;;;1.10;;
31128;SDS011;17777;48.770;8.944;2023-12-28T05:48:33;1.00;;;0.80;;
31128;SDS011;17777;48.770;8.944;2023-12-28T05:51:00;2.45;;;1.15;;
31128;SDS011;17777;48.770;8.944;2023-12-28T05:53:26;1.35;;;1.00;;
31128;SDS011;17777;48.770;8.944;2023-12-28T05:55:52;0.80;;;0.75;;
31128;SDS011;17777;48.770;8.944;2023-12-28T05:58:19;3.05;;;0.70;;
31128;SDS011;17777;48.770;8.944;2023-12-28T06:00:44;0.70;;;0.70;;
31128;SDS011;17777;48.770;8.944;2023-12-28T06:03:13;1.40;;;0.73;;
31128;SDS011;17777;48.770;8.944;2023-12-28T06:05:39;1.98;;;0.82;;
31128;SDS011;17777;48.770;8.944;2023-12-28T06:08:05;1.30;;;0.85;;
31128;SDS011;17777;48.770;8.944;2023-12-28T06:10:31;2.17;;;0.77;;
31128;SDS011;17777;48.770;8.944;2023-12-28T06:12:57;1.45;;;0.80;;
31128;SDS011;17777;48.770;8.944;2023-12-28T06:15:23;1.02;;;0.60;;
31128;SDS011;17777;48.770;8.944;2023-12-28T06:17:49;0.90;;;0.70;;
31128;SDS011;17777;48.770;8.944;2023-12-28T06:20:14;3.03;;;0.80;;
31128;SDS011;17777;48.770;8.944;2023-12-28T06:22:40;2.10;;;0.70;;
31128;SDS011;17777;48.770;8.944;2023-12-28T06:25:06;1.13;;;0.75;;
31128;SDS011;17777;48.770;8.944;2023-12-28T06:27:32;0.93;;;0.60;;
31128;SDS011;17777;48.770;8.944;2023-12-28T06:29:58;1.13;;;0.68;;
31128;SDS011;17777;48.770;8.944;2023-12-28T06:32:24;2.38;;;1.15;;
31128;SDS011;17777;48.770;8.944;2023-12-28T06:34:50;0.75;;;0.75;;
31128;SDS011;17777;48.770;8.944;2023-12-28T06:37:16;1.27;;;1.00;;
31128;SDS011;17777;48.770;8.944;2023-12-28T06:39:42;1.02;;;0.70;;
31128;SDS011;17777;48.770;8.944;2023-12-28T06:42:08;1.98;;;0.80;;
31128;SDS011;17777;48.770;8.944;2023-12-28T06:44:34;0.90;;;0.85;;
31128;SDS011;17777;48.770;8.944;2023-12-28T06:46:59;1.55;;;0.75;;
31128;SDS011;17777;48.770;8.944;2023-12-28T06:49:25;0.75;;;0.60;;
31128;SDS011;17777;48.770;8.944;2023-12-28T06:51:51;0.85;;;0.65;;
31128;SDS011;17777;48.770;8.944;2023-12-28T06:54:17;1.73;;;0.70;;
31128;SDS011;17777;48.770;8.944;2023-12-28T06:56:43;0.80;;;0.80;;
31128;SDS011;17777;48.770;8.944;2023-12-28T06:59:09;0.60;;;0.60;;
31128;SDS011;17777;48.770;8.944;2023-12-28T07:01:38;2.00;;;0.75;;
31128;SDS011;17777;48.770;8.944;2023-12-28T07:04:04;3.83;;;0.90;;
31128;SDS011;17777;48.770;8.944;2023-12-28T07:06:30;1.15;;;0.75;;
31128;SDS011;17777;48.770;8.944;2023-12-28T07:08:56;1.23;;;0.90;;
31128;SDS011;17777;48.770;8.944;2023-12-28T07:11:21;2.53;;;1.00;;
31128;SDS011;17777;48.770;8.944;2023-12-28T07:13:47;1.15;;;0.90;;
31128;SDS011;17777;48.770;8.944;2023-12-28T07:16:13;3.50;;;0.85;;
31128;SDS011;17777;48.770;8.944;2023-12-28T07:18:40;1.15;;;0.80;;
31128;SDS011;17777;48.770;8.944;2023-12-28T07:21:06;1.48;;;0.70;;
31128;SDS011;17777;48.770;8.944;2023-12-28T07:23:36;0.98;;;0.68;;
31128;SDS011;17777;48.770;8.944;2023-12-28T07:26:03;1.30;;;0.90;;
31128;SDS011;17777;48.770;8.944;2023-12-28T07:28:30;1.23;;;0.88;;
31128;SDS011;17777;48.770;8.944;2023-12-28T07:30:56;2.00;;;0.80;;
31128;SDS011;17777;48.770;8.944;2023-12-28T07:33:21;1.08;;;0.80;;
31128;SDS011;17777;48.770;8.944;2023-12-28T07:35:47;1.40;;;0.77;;
31128;SDS011;17777;48.770;8.944;2023-12-28T07:38:13;1.73;;;0.90;;
31128;SDS011;17777;48.770;8.944;2023-12-28T07:40:39;1.77;;;0.93;;
31128;SDS011;17777;48.770;8.944;2023-12-28T07:43:05;1.38;;;0.85;;
31128;SDS011;17777;48.770;8.944;2023-12-28T07:45:30;1.13;;;0.80;;
31128;SDS011;17777;48.770;8.944;2023-12-28T07:47:57;0.85;;;0.73;;
31128;SDS011;17777;48.770;8.944;2023-12-28T07:50:25;0.82;;;0.80;;
31128;SDS011;17777;48.770;8.944;2023-12-28T07:52:51;0.77;;;0.60;;
31128;SDS011;17777;48.770;8.944;2023-12-28T07:55:18;0.70;;;0.70;;
31128;SDS011;17777;48.770;8.944;2023-12-28T07:57:44;1.70;;;0.90;;
31128;SDS011;17777;48.770;8.944;2023-12-28T08:00:10;1.27;;;0.82;;
31128;SDS011;17777;48.770;8.944;2023-12-28T08:02:37;1.58;;;0.70;;
31128;SDS011;17777;48.770;8.944;2023-12-28T08:05:03;1.83;;;0.93;;
31128;SDS011;17777;48.770;8.944;2023-12-28T08:07:30;1.10;;;0.77;;
31128;SDS011;17777;48.770;8.944;2023-12-28T08:09:55;2.20;;;1.00;;
31128;SDS011;17777;48.770;8.944;2023-12-28T08:12:21;1.65;;;0.90;;
31128;SDS011;17777;48.770;8.944;2023-12-28T08:14:49;3.75;;;1.17;;
31128;SDS011;17777;48.770;8.944;2023-12-28T08:17:15;1.58;;;0.80;;
31128;SDS011;17777;48.770;8.944;2023-12-28T08:19:41;1.50;;;1.10;;
31128;SDS011;17777;48.770;8.944;2023-12-28T08:22:06;2.65;;;1.70;;
31128;SDS011;17777;48.770;8.944;2023-12-28T08:24:32;2.03;;;1.45;;
31128;SDS011;17777;48.770;8.944;2023-12-28T08:26:58;3.58;;;2.08;;
31128;SDS011;17777;48.770;8.944;2023-12-28T08:29:25;4.50;;;2.20;;
31128;SDS011;17777;48.770;8.944;2023-12-28T08:31:51;4.70;;;2.65;;
31128;SDS011;17777;48.770;8.944;2023-12-28T08:34:17;2.65;;;2.03;;
31128;SDS011;17777;48.770;8.944;2023-12-28T08:36:43;2.42;;;1.70;;
31128;SDS011;17777;48.770;8.944;2023-12-28T08:39:09;1.25;;;1.08;;
31128;SDS011;17777;48.770;8.944;2023-12-28T08:41:35;3.08;;;1.10;;
31128;SDS011;17777;48.770;8.944;2023-12-28T08:44:00;1.23;;;1.00;;
31128;SDS011;17777;48.770;8.944;2023-12-28T08:46:26;1.67;;;1.25;;
31128;SDS011;17777;48.770;8.944;2023-12-28T08:48:52;1.60;;;1.00;;
31128;SDS011;17777;48.770;8.944;2023-12-28T08:51:18;1.23;;;1.10;;
31128;SDS011;17777;48.770;8.944;2023-12-28T08:53:45;1.13;;;0.93;;
31128;SDS011;17777;48.770;8.944;2023-12-28T08:56:21;0.82;;;0.77;;
31128;SDS011;17777;48.770;8.944;2023-12-28T08:58:47;1.42;;;0.90;;
31128;SDS011;17777;48.770;8.944;2023-12-28T09:01:21;1.10;;;0.70;;
31128;SDS011;17777;48.770;8.944;2023-12-28T09:03:50;1.20;;;0.73;;
31128;SDS011;17777;48.770;8.944;2023-12-28T09:06:18;1.15;;;0.70;;
31128;SDS011;17777;48.770;8.944;2023-12-28T09:08:46;0.77;;;0.60;;
31128;SDS011;17777;48.770;8.944;2023-12-28T09:11:17;1.02;;;0.80;;
31128;SDS011;17777;48.770;8.944;2023-12-28T09:13:43;0.85;;;0.80;;
31128;SDS011;17777;48.770;8.944;2023-12-28T09:16:10;2.53;;;0.95;;
31128;SDS011;17777;48.770;8.944;2023-12-28T09:18:37;1.42;;;0.80;;
31128;SDS011;17777;48.770;8.944;2023-12-28T09:21:04;0.82;;;0.70;;
31128;SDS011;17777;48.770;8.944;2023-12-28T09:23:32;1.35;;;1.17;;
31128;SDS011;17777;48.770;8.944;2023-12-28T09:25:59;2.80;;;1.17;;
31128;SDS011;17777;48.770;8.944;2023-12-28T09:28:28;1.63;;;0.90;;
31128;SDS011;17777;48.770;8.944;2023-12-28T09:30:54;1.20;;;0.80;;
31128;SDS011;17777;48.770;8.944;2023-12-28T09:33:20;2.28;;;1.10;;
31128;SDS011;17777;48.770;8.944;2023-12-28T09:35:46;1.10;;;1.00;;
31128;SDS011;17777;48.770;8.944;2023-12-28T09:38:13;1.77;;;1.27;;
31128;SDS011;17777;48.770;8.944;2023-12-28T09:40:42;3.35;;;1.42;;
31128;SDS011;17777;48.770;8.944;2023-12-28T09:43:13;2.22;;;1.30;;
31128;SDS011;17777;48.770;8.944;2023-12-28T09:45:50;2.05;;;1.25;;
31128;SDS011;17777;48.770;8.944;2023-12-28T09:48:17;2.25;;;1.60;;
31128;SDS011;17777;48.770;8.944;2023-12-28T09:50:45;1.92;;;1.15;;
31128;SDS011;17777;48.770;8.944;2023-12-28T09:53:23;1.70;;;1.33;;
31128;SDS011;17777;48.770;8.944;2023-12-28T09:55:49;1.80;;;1.02;;
31128;SDS011;17777;48.770;8.944;2023-12-28T09:58:19;1.48;;;0.90;;
31128;SDS011;17777;48.770;8.944;2023-12-28T10:00:47;1.60;;;1.08;;
31128;SDS011;17777;48.770;8.944;2023-12-28T10:03:15;1.92;;;0.77;;
31128;SDS011;17777;48.770;8.944;2023-12-28T10:05:42;0.70;;;0.70;;
31128;SDS011;17777;48.770;8.944;2023-12-28T10:08:13;1.00;;;0.80;;
31128;SDS011;17777;48.770;8.944;2023-12-28T10:10:40;1.88;;;0.82;;
31128;SDS011;17777;48.770;8.944;2023-12-28T10:13:07;1.00;;;0.80;;
31128;SDS011;17777;48.770;8.944;2023-12-28T10:15:35;1.13;;;0.63;;
31128;SDS011;17777;48.770;8.944;2023-12-28T10:18:01;1.00;;;0.60;;
31128;SDS011;17777;48.770;8.944;2023-12-28T10:20:28;0.60;;;0.60;;
31128;SDS011;17777;48.770;8.944;2023-12-28T10:22:54;0.80;;;0.80;;
31128;SDS011;17777;48.770;8.944;2023-12-28T10:25:20;1.60;;;0.95;;
31128;SDS011;17777;48.770;8.944;2023-12-28T10:27:49;1.17;;;0.77;;
31128;SDS011;17777;48.770;8.944;2023-12-28T10:30:17;1.45;;;0.77;;
31128;SDS011;17777;48.770;8.944;2023-12-28T10:32:45;0.82;;;0.60;;
31128;SDS011;17777;48.770;8.944;2023-12-28T10:35:11;0.82;;;0.68;;
31128;SDS011;17777;48.770;8.944;2023-12-28T10:37:37;0.80;;;0.60;;
31128;SDS011;17777;48.770;8.944;2023-12-28T10:40:18;1.05;;;0.75;;
31128;SDS011;17777;48.770;8.944;2023-12-28T10:45:20;1.40;;;0.73;;
31128;SDS011;17777;48.770;8.944;2023-12-28T10:48:06;1.00;;;0.77;;
31128;SDS011;17777;48.770;8.944;2023-12-28T10:56:28;2.00;;;0.90;;
31128;SDS011;17777;48.770;8.944;2023-12-28T11:02:04;1.15;;;0.90;;
31128;SDS011;17777;48.770;8.944;2023-12-28T11:04:37;0.65;;;0.65;;
31128;SDS011;17777;48.770;8.944;2023-12-28T11:07:10;1.83;;;0.75;;
31128;SDS011;17777;48.770;8.944;2023-12-28T11:09:38;1.48;;;0.93;;
31128;SDS011;17777;48.770;8.944;2023-12-28T11:12:09;1.00;;;0.90;;
31128;SDS011;17777;48.770;8.944;2023-12-28T11:14:35;1.38;;;0.90;;
31128;SDS011;17777;48.770;8.944;2023-12-28T11:17:04;1.02;;;0.68;;
31128;SDS011;17777;48.770;8.944;2023-12-28T11:19:30;1.13;;;1.00;;
31128;SDS011;17777;48.770;8.944;2023-12-28T11:21:58;1.75;;;0.80;;
31128;SDS011;17777;48.770;8.944;2023-12-28T11:24:27;1.67;;;0.90;;
31128;SDS011;17777;48.770;8.944;2023-12-28T11:26:54;1.17;;;0.85;;
31128;SDS011;17777;48.770;8.944;2023-12-28T11:29:21;1.23;;;0.80;;
31128;SDS011;17777;48.770;8.944;2023-12-28T11:31:54;1.67;;;0.80;;
31128;SDS011;17777;48.770;8.944;2023-12-28T11:34:25;1.23;;;0.88;;
31128;SDS011;17777;48.770;8.944;2023-12-28T11:36:57;0.85;;;0.85;;
31128;SDS011;17777;48.770;8.944;2023-12-28T11:39:33;1.70;;;1.00;;
31128;SDS011;17777;48.770;8.944;2023-12-28T11:42:01;1.60;;;0.90;;
31128;SDS011;17777;48.770;8.944;2023-12-28T11:44:37;1.83;;;1.17;;
31128;SDS011;17777;48.770;8.944;2023-12-28T11:47:14;2.47;;;1.42;;
31128;SDS011;17777;48.770;8.944;2023-12-28T11:49:50;2.22;;;1.20;;
31128;SDS011;17777;48.770;8.944;2023-12-28T11:52:25;1.33;;;1.13;;
31128;SDS011;17777;48.770;8.944;2023-12-28T11:54:53;1.92;;;1.20;;
31128;SDS011;17777;48.770;8.944;2023-12-28T11:57:19;1.67;;;1.10;;
31128;SDS011;17777;48.770;8.944;2023-12-28T11:59:45;1.45;;;1.13;;
31128;SDS011;17777;48.770;8.944;2023-12-28T12:02:13;1.70;;;1.10;;
31128;SDS011;17777;48.770;8.944;2023-12-28T12:04:39;1.05;;;0.70;;
31128;SDS011;17777;48.770;8.944;2023-12-28T12:07:05;0.95;;;0.80;;
31128;SDS011;17777;48.770;8.944;2023-12-28T12:09:31;1.00;;;0.63;;
31128;SDS011;17777;48.770;8.944;2023-12-28T12:12:03;1.85;;;1.23;;
31128;SDS011;17777;48.770;8.944;2023-12-28T12:14:30;1.10;;;0.90;;
31128;SDS011;17777;48.770;8.944;2023-12-28T12:16:56;0.93;;;0.80;;
31128;SDS011;17777;48.770;8.944;2023-12-28T12:19:23;1.05;;;0.70;;
31128;SDS011;17777;48.770;8.944;2023-12-28T12:21:54;1.55;;;1.05;;
31128;SDS011;17777;48.770;8.944;2023-12-28T12:24:21;1.00;;;0.70;;
31128;SDS011;17777;48.770;8.944;2023-12-28T12:26:49;0.80;;;0.70;;
31128;SDS011;17777;48.770;8.944;2023-12-28T12:29:16;1.58;;;0.88;;
31128;SDS011;17777;48.770;8.944;2023-12-28T12:31:42;1.27;;;0.70;;
31128;SDS011;17777;48.770;8.944;2023-12-28T12:34:15;1.50;;;0.70;;
31128;SDS011;17777;48.770;8.944;2023-12-28T12:36:42;2.42;;;0.85;;
31128;SDS011;17777;48.770;8.944;2023-12-28T12:39:13;0.70;;;0.70;;
31128;SDS011;17777;48.770;8.944;2023-12-28T12:41:38;1.27;;;0.80;;
31128;SDS011;17777;48.770;8.944;2023-12-28T12:44:04;1.45;;;0.90;;
31128;SDS011;17777;48.770;8.944;2023-12-28T12:46:30;1.85;;;1.08;;
31128;SDS011;17777;48.770;8.944;2023-12-28T12:48:57;1.52;;;0.80;;
31128;SDS011;17777;48.770;8.944;2023-12-28T12:51:27;1.52;;;0.90;;
31128;SDS011;17777;48.770;8.944;2023-12-28T12:53:57;1.58;;;1.00;;
31128;SDS011;17777;48.770;8.944;2023-12-28T12:56:24;1.00;;;0.90;;
31128;SDS011;17777;48.770;8.944;2023-12-28T12:58:51;0.50;;;0.50;;
31128;SDS011;17777;48.770;8.944;2023-12-28T13:01:17;0.57;;;0.57;;
31128;SDS011;17777;48.770;8.944;2023-12-28T13:03:45;1.67;;;0.80;;
31128;SDS011;17777;48.770;8.944;2023-12-28T13:06:11;0.85;;;0.85;;
31128;SDS011;17777;48.770;8.944;2023-12-28T13:08:37;0.70;;;0.70;;
31128;SDS011;17777;48.770;8.944;2023-12-28T13:11:03;1.15;;;0.70;;
31128;SDS011;17777;48.770;8.944;2023-12-28T13:13:31;1.85;;;0.95;;
31128;SDS011;17777;48.770;8.944;2023-12-28T13:16:04;1.40;;;0.70;;
31128;SDS011;17777;48.770;8.944;2023-12-28T13:18:30;0.68;;;0.60;;
31128;SDS011;17777;48.770;8.944;2023-12-28T13:20:57;1.95;;;0.60;;
31128;SDS011;17777;48.770;8.944;2023-12-28T13:23:23;1.83;;;0.68;;
31128;SDS011;17777;48.770;8.944;2023-12-28T13:25:49;0.77;;;0.60;;
31128;SDS011;17777;48.770;8.944;2023-12-28T13:28:16;0.60;;;0.60;;
31128;SDS011;17777;48.770;8.944;2023-12-28T13:30:42;1.02;;;0.70;;
31128;SDS011;17777;48.770;8.944;2023-12-28T13:33:08;0.52;;;0.50;;
31128;SDS011;17777;48.770;8.944;2023-12-28T13:35:34;0.90;;;0.70;;
31128;SDS011;17777;48.770;8.944;2023-12-28T13:38:00;1.60;;;0.70;;
31128;SDS011;17777;48.770;8.944;2023-12-28T13:40:26;0.50;;;0.50;;
31128;SDS011;17777;48.770;8.944;2023-12-28T13:42:53;0.50;;;0.50;;
31128;SDS011;17777;48.770;8.944;2023-12-28T13:45:19;1.80;;;0.60;;
31128;SDS011;17777;48.770;8.944;2023-12-28T13:47:44;0.60;;;0.60;;
31128;SDS011;17777;48.770;8.944;2023-12-28T13:50:11;1.35;;;0.60;;
31128;SDS011;17777;48.770;8.944;2023-12-28T13:52:36;1.02;;;0.60;;
31128;SDS011;17777;48.770;8.944;2023-12-28T13:55:02;0.60;;;0.60;;
31128;SDS011;17777;48.770;8.944;2023-12-28T13:57:29;0.77;;;0.60;;
31128;SDS011;17777;48.770;8.944;2023-12-28T13:59:54;0.77;;;0.73;;
31128;SDS011;17777;48.770;8.944;2023-12-28T14:02:25;2.00;;;0.80;;
31128;SDS011;17777;48.770;8.944;2023-12-28T14:04:53;0.70;;;0.70;;
31128;SDS011;17777;48.770;8.944;2023-12-28T14:07:21;0.80;;;0.80;;
31128;SDS011;17777;48.770;8.944;2023-12-28T14:09:48;0.93;;;0.85;;
31128;SDS011;17777;48.770;8.944;2023-12-28T14:12:13;1.05;;;0.95;;
31128;SDS011;17777;48.770;8.944;2023-12-28T14:14:39;1.20;;;0.90;;
31128;SDS011;17777;48.770;8.944;2023-12-28T14:17:05;0.88;;;0.85;;
31128;SDS011;17777;48.770;8.944;2023-12-28T14:19:31;2.72;;;0.80;;
31128;SDS011;17777;48.770;8.944;2023-12-28T14:21:58;0.77;;;0.70;;
31128;SDS011;17777;48.770;8.944;2023-12-28T14:24:25;0.80;;;0.80;;
31128;SDS011;17777;48.770;8.944;2023-12-28T14:26:54;1.08;;;0.80;;
31128;SDS011;17777;48.770;8.944;2023-12-28T14:29:21;1.05;;;0.95;;
31128;SDS011;17777;48.770;8.944;2023-12-28T14:31:48;1.17;;;0.95;;
31128;SDS011;17777;48.770;8.944;2023-12-28T14:34:14;2.08;;;1.10;;
31128;SDS011;17777;48.770;8.944;2023-12-28T14:36:40;0.82;;;0.73;;
31128;SDS011;17777;48.770;8.944;2023-12-28T14:39:14;0.70;;;0.70;;
31128;SDS011;17777;48.770;8.944;2023-12-28T14:41:43;1.52;;;0.90;;
31128;SDS011;17777;48.770;8.944;2023-12-28T14:44:09;1.08;;;0.68;;
31128;SDS011;17777;48.770;8.944;2023-12-28T14:46:35;0.80;;;0.80;;
31128;SDS011;17777;48.770;8.944;2023-12-28T14:49:01;1.65;;;0.95;;
31128;SDS011;17777;48.770;8.944;2023-12-28T14:51:27;1.55;;;1.00;;
31128;SDS011;17777;48.770;8.944;2023-12-28T14:53:57;1.00;;;0.90;;
31128;SDS011;17777;48.770;8.944;2023-12-28T14:56:22;1.95;;;1.10;;
31128;SDS011;17777;48.770;8.944;2023-12-28T14:58:49;1.85;;;1.13;;
31128;SDS011;17777;48.770;8.944;2023-12-28T15:01:15;1.10;;;1.00;;
31128;SDS011;17777;48.770;8.944;2023-12-28T15:03:42;1.23;;;0.88;;
31128;SDS011;17777;48.770;8.944;2023-12-28T15:06:08;1.48;;;1.00;;